Decoded Metar for UWOO (ORENBURG in RUSSIA) (IATA:REN) | Meteo·Mobile Aviation Weather
aviador You're here:

UWOO Decoded Metar

ORENBURG in RUSSIA
Report Time2019-07-23 02:00:00
UTC Time2019-07-23 02:40:44
Flight Rules vfr VFR
Wind140° at 4 kt
W.Decomp.*RWY 08: 2.6 kt HW 3.0 kt RCW
Visibility9999 m
Phenomena:N/A
Clouds:Few CB 040 Hf
Expected CloudBase > 1,200 ft AGL from Temp-Dew spread
CeilingNone
Temp15°C (ISA +1)
Dew Point12°C (82% RH)
AAT14.2°C
QNH1011 hPa
Density Alt699 ft
Elevation358 ft
Report Wrong Elevation
Raw Report
UWOO 230200Z 14002MPS 9999 FEW040CB 15/12 Q1011 R26/CLRD65 NOSIG
RMK QFE748/0997=

Extra information for UWOO:More info

Metar Taf Metar & Taf Last 4 Metars F.Rules Stats Wind Profile Meteogram Temp Stats Airport Information Weather charts Add Link Nearby VenuesMetar ALERT Operation Metar Decoded Social comments